Time;durP1;ratioP1;P1;durP2;ratioP2;P2;SDS_P1;SDS_P2;PMS_P1;PMS_P2;Temp;Humidity;BMP_temperature;BMP_pressure;BME280_temperature;BME280_humidity;BME280_pressure;Samples;Min_cycle;Max_cycle;Signal;HPM_P1;HPM_P2
2023/10/24 00:00:07;;;;;;;12.57;5.00;;;;;;;18.03;65.26;97143.59;5008662;28;20256;-66
2023/10/24 00:02:39;;;;;;;14.43;5.87;;;;;;;17.81;66.00;97120.72;5007412;28;20198;-67
2023/10/24 00:05:07;;;;;;;14.93;4.90;;;;;;;17.91;65.91;97133.16;5008727;28;20274;-65
2023/10/24 00:07:34;;;;;;;12.37;5.60;;;;;;;17.78;65.63;97099.97;5007490;28;20277;-67
2023/10/24 00:10:02;;;;;;;10.43;4.90;;;;;;;17.88;65.69;97121.13;5008406;28;20216;-68
2023/10/24 00:12:30;;;;;;;14.13;4.90;;;;;;;17.73;66.35;97123.06;5008361;28;20612;-68
2023/10/24 00:14:58;;;;;;;11.37;4.93;;;;;;;17.79;65.99;97106.06;5007346;28;20265;-74
2023/10/24 00:17:25;;;;;;;12.67;5.13;;;;;;;17.76;66.21;97104.50;5008679;28;20233;-73
2023/10/24 00:19:52;;;;;;;12.10;5.23;;;;;;;17.72;66.37;97108.28;5006977;28;20209;-71
2023/10/24 00:22:19;;;;;;;11.67;5.10;;;;;;;17.63;66.62;97103.75;5008557;28;20222;-69
2023/10/24 00:24:46;;;;;;;13.83;5.37;;;;;;;17.60;66.88;97103.09;5007141;28;20200;-75
2023/10/24 00:27:13;;;;;;;15.00;5.93;;;;;;;17.61;66.66;97097.78;5008021;28;20297;-74
2023/10/24 00:29:40;;;;;;;14.87;5.00;;;;;;;17.62;66.82;97096.00;5008136;28;20207;-78
2023/10/24 00:32:07;;;;;;;12.87;5.57;;;;;;;17.67;66.48;97101.72;5007402;28;20256;-79
2023/10/24 00:34:35;;;;;;;13.97;5.33;;;;;;;17.68;66.52;97098.97;5008267;28;20194;-70
2023/10/24 00:37:04;;;;;;;14.40;6.17;;;;;;;17.78;65.97;97102.59;5005578;28;20225;-72
2023/10/24 00:39:31;;;;;;;10.83;5.53;;;;;;;17.63;66.64;97097.66;5006890;28;20225;-71
2023/10/24 00:41:58;;;;;;;12.20;4.80;;;;;;;17.30;66.58;97047.69;5006954;28;20207;-77
2023/10/24 00:44:27;;;;;;;10.73;4.87;;;;;;;17.48;67.20;97096.09;5008129;28;20208;-71
2023/10/24 00:46:55;;;;;;;17.20;5.57;;;;;;;17.31;67.72;97099.13;5006278;28;20201;-72
2023/10/24 00:49:22;;;;;;;13.70;5.60;;;;;;;16.94;68.95;97093.03;5007433;28;20710;-74
2023/10/24 00:51:49;;;;;;;13.07;5.40;;;;;;;16.83;69.65;97095.56;5007887;28;20262;-71
2023/10/24 00:54:16;;;;;;;13.37;5.37;;;;;;;16.76;70.11;97099.53;5006590;28;20749;-71
2023/10/24 00:56:46;;;;;;;11.83;5.17;;;;;;;16.58;70.57;97080.75;5007472;28;20243;-69
2023/10/24 00:59:17;;;;;;;16.03;6.13;;;;;;;16.75;70.50;97096.09;5006653;28;20263;-70
2023/10/24 01:01:44;;;;;;;20.37;6.00;;;;;;;16.78;70.37;97106.34;5007897;28;20291;-76
2023/10/24 01:04:12;;;;;;;14.40;5.70;;;;;;;16.87;69.72;97094.41;5005723;28;20224;-70
2023/10/24 01:06:39;;;;;;;16.27;6.50;;;;;;;16.70;70.09;97081.66;5007078;28;20203;-73
2023/10/24 01:09:06;;;;;;;11.37;5.30;;;;;;;16.82;70.38;97102.56;5006318;28;20200;-73
2023/10/24 01:11:34;;;;;;;14.57;6.50;;;;;;;16.84;70.16;97097.22;5006310;28;20225;-74
2023/10/24 01:14:02;;;;;;;18.30;5.90;;;;;;;16.79;70.21;97100.19;5007455;28;20240;-74
2023/10/24 01:16:33;;;;;;;14.37;6.00;;;;;;;16.73;70.04;97091.91;5006168;28;20199;-78
2023/10/24 01:19:00;;;;;;;14.40;5.63;;;;;;;16.81;70.06;97097.47;5006186;28;20201;-75
2023/10/24 01:21:27;;;;;;;19.20;6.00;;;;;;;16.92;69.63;97094.91;5007125;28;20289;-78
2023/10/24 01:23:56;;;;;;;13.63;6.00;;;;;;;17.00;69.20;97090.81;5006901;28;20234;-69
2023/10/24 01:26:25;;;;;;;15.90;5.57;;;;;;;16.97;68.96;97077.13;5007529;28;20199;-72
2023/10/24 01:28:53;;;;;;;11.77;5.10;;;;;;;17.13;68.32;97090.78;5004917;28;20227;-72
2023/10/24 01:31:20;;;;;;;12.97;6.03;;;;;;;16.94;69.12;97090.41;5005360;28;20632;-75
2023/10/24 01:33:48;;;;;;;9.63;5.50;;;;;;;16.86;69.60;97077.88;4986419;28;20227;-71
2023/10/24 01:36:15;;;;;;;12.33;4.63;;;;;;;16.92;69.20;97089.69;4987904;28;20204;-68
2023/10/24 01:38:42;;;;;;;13.07;5.53;;;;;;;16.91;69.21;97085.41;4986869;28;20205;-71
2023/10/24 01:41:09;;;;;;;18.20;5.67;;;;;;;16.82;69.35;97081.66;4986259;28;20205;-73
2023/10/24 01:43:36;;;;;;;10.20;4.80;;;;;;;16.92;69.33;97082.66;4986392;28;20220;-68
2023/10/24 01:46:03;;;;;;;13.10;5.53;;;;;;;17.02;68.58;97091.53;4986660;28;20227;-71
2023/10/24 01:48:31;;;;;;;18.03;5.47;;;;;;;17.03;68.50;97101.06;4987646;28;20224;-68
2023/10/24 01:50:58;;;;;;;12.10;5.13;;;;;;;17.03;68.16;97097.63;4986427;28;20212;-67
2023/10/24 01:53:26;;;;;;;14.47;5.47;;;;;;;16.56;69.44;97084.41;4987577;28;20229;-67
2023/10/24 01:55:53;;;;;;;10.23;5.50;;;;;;;16.47;69.91;97100.66;4985604;28;20220;-67
2023/10/24 01:58:20;;;;;;;13.67;4.87;;;;;;;16.52;70.12;97096.84;4986166;28;20283;-70
2023/10/24 02:00:47;;;;;;;16.23;5.57;;;;;;;16.39;70.53;97088.13;4986236;28;20213;-71
2023/10/24 02:03:14;;;;;;;15.17;5.90;;;;;;;16.20;71.21;97078.09;4986533;28;20216;-68
2023/10/24 02:05:41;;;;;;;15.70;4.97;;;;;;;16.12;71.98;97083.00;4987620;28;20206;-68
2023/10/24 02:08:08;;;;;;;12.50;5.27;;;;;;;16.07;72.26;97087.66;4987977;28;20224;-67
2023/10/24 02:10:35;;;;;;;14.10;5.97;;;;;;;16.11;72.14;97085.72;4991264;28;20303;-75
2023/10/24 02:13:02;;;;;;;16.37;5.30;;;;;;;16.04;72.42;97085.28;4989700;28;20233;-69
2023/10/24 02:15:29;;;;;;;15.27;5.67;;;;;;;15.94;73.06;97089.44;4989868;28;20204;-71
2023/10/24 02:17:57;;;;;;;14.57;5.13;;;;;;;16.12;72.73;97083.00;4991212;28;20247;-69
2023/10/24 02:20:25;;;;;;;14.60;5.70;;;;;;;16.07;72.66;97073.78;4988789;28;20196;-72
2023/10/24 02:22:54;;;;;;;15.93;5.40;;;;;;;16.23;72.08;97084.88;4989734;28;20208;-71
2023/10/24 02:25:21;;;;;;;12.23;5.30;;;;;;;16.35;71.46;97085.81;4988593;28;20197;-68
2023/10/24 02:27:48;;;;;;;13.97;6.00;;;;;;;16.54;70.73;97084.50;4990939;28;20199;-68
2023/10/24 02:30:15;;;;;;;17.80;5.30;;;;;;;16.74;70.05;97090.97;4989731;28;20267;-67
2023/10/24 02:32:42;;;;;;;13.07;5.40;;;;;;;16.80;69.96;97090.53;4989309;28;20199;-72
2023/10/24 02:35:10;;;;;;;14.67;5.17;;;;;;;16.83;69.27;97091.19;4990139;28;20200;-68
2023/10/24 02:37:37;;;;;;;15.93;4.93;;;;;;;16.94;68.86;97090.41;4990043;28;20204;-73
2023/10/24 02:40:05;;;;;;;9.67;4.93;;;;;;;16.99;68.95;97089.16;4990647;28;20583;-71
2023/10/24 02:42:33;;;;;;;13.53;5.60;;;;;;;16.83;68.29;97085.09;4989672;28;20208;-73
2023/10/24 02:45:00;;;;;;;13.67;5.80;;;;;;;16.18;69.71;97094.78;4990688;28;20239;-69
2023/10/24 02:47:32;;;;;;;15.43;5.50;;;;;;;16.06;70.08;97099.06;4988217;28;20209;-67
2023/10/24 02:49:59;;;;;;;11.27;4.70;;;;;;;15.95;70.42;97098.13;4990228;28;20216;-68
2023/10/24 02:52:29;;;;;;;11.63;5.33;;;;;;;15.83;70.41;97081.47;4990071;28;20204;-70
2023/10/24 02:54:56;;;;;;;13.37;5.57;;;;;;;15.92;70.18;97091.31;4989684;28;20715;-68
2023/10/24 02:57:23;;;;;;;11.47;5.00;;;;;;;16.15;69.88;97098.47;4990309;28;20192;-67
2023/10/24 02:59:51;;;;;;;13.37;5.73;;;;;;;16.02;70.72;97105.44;4987766;28;20211;-68
2023/10/24 03:02:18;;;;;;;12.20;5.13;;;;;;;16.08;69.85;97101.56;4990288;28;20213;-69
2023/10/24 03:04:46;;;;;;;13.47;5.77;;;;;;;16.11;69.96;97106.63;4988907;28;20226;-70
2023/10/24 03:07:13;;;;;;;14.10;5.07;;;;;;;16.19;69.66;97105.16;4990353;28;20197;-72
2023/10/24 03:09:40;;;;;;;12.30;5.30;;;;;;;16.09;70.05;97108.50;4989657;28;20687;-71
2023/10/24 03:12:09;;;;;;;13.67;5.87;;;;;;;16.08;69.61;97112.88;4989748;28;20217;-72
2023/10/24 03:14:37;;;;;;;13.90;5.60;;;;;;;16.13;69.63;97112.56;4989648;28;20263;-73
2023/10/24 03:17:04;;;;;;;12.23;4.97;;;;;;;16.02;69.79;97115.06;4990380;28;20204;-68
2023/10/24 03:19:32;;;;;;;15.93;5.47;;;;;;;16.02;69.82;97113.28;4990017;28;20200;-68
2023/10/24 03:22:00;;;;;;;12.83;6.07;;;;;;;15.85;70.48;97112.69;4988879;28;20201;-73
2023/10/24 03:24:28;;;;;;;16.37;5.07;;;;;;;15.63;71.30;97113.28;4989827;28;20210;-76
2023/10/24 03:26:55;;;;;;;13.00;5.30;;;;;;;15.71;71.27;97108.38;4989024;28;20204;-77
2023/10/24 03:29:23;;;;;;;18.83;5.87;;;;;;;15.59;72.09;97097.91;4994704;28;20247;-70
2023/10/24 03:31:50;;;;;;;15.13;5.43;;;;;;;15.80;71.85;97117.41;5007736;28;20269;-70
2023/10/24 03:34:17;;;;;;;14.00;4.70;;;;;;;15.58;72.88;97111.91;5008247;28;20230;-71
2023/10/24 03:36:44;;;;;;;12.30;4.97;;;;;;;15.58;73.04;97112.72;5009162;28;20193;-70
2023/10/24 03:39:11;;;;;;;11.30;5.17;;;;;;;15.55;73.25;97106.88;5006652;28;20282;-71
2023/10/24 03:41:38;;;;;;;15.33;5.27;;;;;;;15.39;73.71;97107.00;5009304;28;20578;-74
2023/10/24 03:44:05;;;;;;;13.67;5.53;;;;;;;15.21;74.81;97105.53;5007843;28;20200;-79
2023/10/24 03:46:32;;;;;;;13.63;5.90;;;;;;;15.43;73.66;97105.88;5000479;28;20647;-76
2023/10/24 03:49:00;;;;;;;14.20;5.07;;;;;;;15.52;73.64;97096.63;4997810;28;20235;-80
2023/10/24 03:51:27;;;;;;;14.03;5.30;;;;;;;15.69;72.73;97098.97;4997373;28;20639;-76
2023/10/24 03:53:54;;;;;;;14.63;5.27;;;;;;;15.83;72.28;97106.75;5000979;28;20229;-76
2023/10/24 03:56:22;;;;;;;12.23;5.37;;;;;;;15.90;71.95;97101.03;4997088;28;20227;-68
2023/10/24 03:58:49;;;;;;;11.90;5.07;;;;;;;15.83;72.25;97102.38;4997582;28;20288;-71
2023/10/24 04:01:16;;;;;;;21.30;5.57;;;;;;;15.75;71.94;97094.19;4998125;28;20702;-76
2023/10/24 04:03:43;;;;;;;14.80;5.20;;;;;;;15.94;71.72;97110.34;4998086;28;20191;-68
2023/10/24 04:06:11;;;;;;;11.37;4.90;;;;;;;16.02;71.26;97115.06;4992448;28;20584;-69
2023/10/24 04:08:41;;;;;;;13.47;5.40;;;;;;;16.03;71.05;97112.31;4999253;28;20696;-70
2023/10/24 04:11:16;;;;;;;17.23;5.73;;;;;;;15.85;71.66;97107.47;4999399;28;20695;-70
2023/10/24 04:13:45;;;;;;;10.50;5.23;;;;;;;15.92;71.31;97106.16;5003200;28;20237;-71
2023/10/24 04:16:13;;;;;;;15.57;5.63;;;;;;;15.84;71.47;97104.06;5007624;28;20293;-68
2023/10/24 04:18:40;;;;;;;16.43;6.03;;;;;;;15.70;72.32;97116.34;5007094;28;20196;-69
2023/10/24 04:21:07;;;;;;;12.47;5.13;;;;;;;15.35;73.59;97113.34;5008297;28;20195;-66
2023/10/24 04:23:35;;;;;;;15.47;5.27;;;;;;;15.16;74.46;97097.16;5006558;28;20294;-69
2023/10/24 04:26:05;;;;;;;11.60;5.83;;;;;;;15.09;74.49;97090.66;5007319;28;20670;-68
2023/10/24 04:28:33;;;;;;;13.80;6.63;;;;;;;15.36;74.47;97110.63;5007961;28;20203;-68
2023/10/24 04:31:00;;;;;;;14.90;6.10;;;;;;;15.44;73.87;97118.84;5007493;28;20199;-67
2023/10/24 04:33:28;;;;;;;14.10;6.00;;;;;;;15.37;73.77;97114.09;5007746;28;20658;-72
2023/10/24 04:35:55;;;;;;;21.90;7.17;;;;;;;15.33;73.60;97096.94;5006764;28;20611;-73
2023/10/24 04:38:22;;;;;;;13.40;7.10;;;;;;;15.43;73.77;97122.38;5007873;28;20230;-75
2023/10/24 04:40:52;;;;;;;21.33;8.10;;;;;;;15.20;74.49;97129.94;5007120;28;20191;-71
2023/10/24 04:43:19;;;;;;;20.00;8.10;;;;;;;15.15;75.03;97129.38;5005493;28;20207;-75
2023/10/24 04:45:47;;;;;;;17.57;6.63;;;;;;;14.99;73.50;97139.94;5007593;28;20707;-75
2023/10/24 04:48:14;;;;;;;24.03;6.97;;;;;;;14.63;74.56;97116.94;5006325;28;20206;-69
2023/10/24 04:50:41;;;;;;;13.80;6.87;;;;;;;14.37;75.29;97130.72;5007670;28;20234;-68
2023/10/24 04:53:08;;;;;;;17.70;6.77;;;;;;;14.37;75.28;97140.28;5006140;28;20283;-74
2023/10/24 04:55:35;;;;;;;17.03;7.27;;;;;;;14.37;75.71;97133.31;5007059;28;20294;-73
2023/10/24 04:58:03;;;;;;;20.77;6.87;;;;;;;14.24;76.03;97158.38;5006529;28;20730;-71
2023/10/24 05:00:30;;;;;;;17.10;7.73;;;;;;;14.13;76.42;97160.78;5006932;28;20199;-68
2023/10/24 05:02:57;;;;;;;13.17;6.87;;;;;;;14.25;76.96;97157.47;5007440;28;20778;-70
2023/10/24 05:05:25;;;;;;;17.17;7.63;;;;;;;14.42;76.22;97159.94;5006157;28;20427;-74
2023/10/24 05:07:52;;;;;;;14.73;7.37;;;;;;;14.41;76.23;97145.22;5007431;28;20674;-68
2023/10/24 05:10:20;;;;;;;14.90;6.70;;;;;;;14.66;76.05;97173.28;5006095;28;20686;-67
2023/10/24 05:12:47;;;;;;;16.43;6.57;;;;;;;14.65;76.47;97179.44;5007241;28;20187;-71
2023/10/24 05:15:14;;;;;;;17.80;7.70;;;;;;;14.72;76.54;97178.13;5006034;28;20238;-69
2023/10/24 05:17:41;;;;;;;22.27;8.00;;;;;;;15.04;75.30;97186.63;5007327;28;20203;-73
2023/10/24 05:20:09;;;;;;;20.93;8.07;;;;;;;15.37;74.33;97194.97;5007003;28;20199;-70
2023/10/24 05:22:36;;;;;;;18.93;8.33;;;;;;;15.60;73.21;97193.56;5006421;28;20281;-70
2023/10/24 05:25:03;;;;;;;20.33;7.80;;;;;;;15.72;72.56;97191.03;5007162;28;20282;-67
2023/10/24 05:27:31;;;;;;;18.33;9.20;;;;;;;15.95;71.43;97206.03;5004132;28;20268;-68
2023/10/24 05:29:59;;;;;;;20.40;8.40;;;;;;;15.97;70.56;97188.50;5007371;28;20219;-69
2023/10/24 05:32:26;;;;;;;19.00;7.83;;;;;;;16.14;69.94;97210.91;5006053;28;20769;-69
2023/10/24 05:34:53;;;;;;;24.23;7.70;;;;;;;15.78;69.94;97151.47;5005588;28;20322;-68
2023/10/24 05:37:20;;;;;;;18.80;7.13;;;;;;;16.18;69.98;97215.84;5007011;28;20266;-67
2023/10/24 05:39:47;;;;;;;21.57;7.37;;;;;;;16.44;69.36;97218.53;5005810;28;20206;-67
2023/10/24 05:42:14;;;;;;;23.37;8.50;;;;;;;16.51;68.51;97220.66;5009312;28;20222;-69
2023/10/24 05:44:41;;;;;;;18.67;8.53;;;;;;;16.05;69.52;97183.59;5010559;28;20611;-71
2023/10/24 05:47:08;;;;;;;15.23;7.17;;;;;;;16.23;69.75;97224.22;5011691;28;20289;-74
2023/10/24 05:49:36;;;;;;;21.67;8.13;;;;;;;16.03;70.63;97227.28;5010427;28;20197;-67
2023/10/24 05:52:03;;;;;;;19.60;7.90;;;;;;;16.08;70.75;97226.97;5011505;28;20674;-75
2023/10/24 05:54:31;;;;;;;18.23;6.90;;;;;;;15.66;70.98;97180.13;5012198;28;20305;-68
2023/10/24 05:56:58;;;;;;;19.57;6.90;;;;;;;15.85;71.78;97233.69;5009632;28;20534;-68
2023/10/24 05:59:26;;;;;;;15.80;6.80;;;;;;;16.01;71.20;97234.38;5012115;28;20230;-70
2023/10/24 06:01:53;;;;;;;20.63;7.50;;;;;;;16.15;71.51;97252.63;5011182;28;20282;-66
2023/10/24 06:04:21;;;;;;;12.77;6.83;;;;;;;16.03;71.30;97237.72;5010894;28;20201;-71
2023/10/24 06:06:48;;;;;;;13.43;7.07;;;;;;;16.09;71.29;97253.00;5008864;28;20206;-70
2023/10/24 06:09:15;;;;;;;19.00;7.03;;;;;;;16.01;71.53;97234.38;5009978;28;20208;-74
2023/10/24 06:11:42;;;;;;;13.03;6.60;;;;;;;16.19;71.30;97248.03;5009526;28;20282;-76
2023/10/24 06:14:09;;;;;;;20.47;6.70;;;;;;;16.21;70.84;97241.78;5009620;28;20954;-68
2023/10/24 06:16:37;;;;;;;12.37;6.67;;;;;;;16.44;70.60;97249.91;5008915;28;20200;-67
2023/10/24 06:19:04;;;;;;;20.10;7.03;;;;;;;16.51;70.30;97251.19;5023935;28;20209;-66
2023/10/24 06:21:31;;;;;;;14.13;6.53;;;;;;;16.32;70.78;97216.72;5010167;28;20203;-72
2023/10/24 06:23:58;;;;;;;18.17;7.20;;;;;;;16.46;70.24;97224.50;5006926;28;20200;-67
2023/10/24 06:26:25;;;;;;;20.23;6.97;;;;;;;16.66;70.11;97253.63;5009971;28;20205;-70
2023/10/24 06:28:53;;;;;;;19.60;6.93;;;;;;;16.68;70.14;97251.75;5007687;28;20586;-68
2023/10/24 06:31:20;;;;;;;18.23;8.50;;;;;;;16.92;69.91;97254.50;5010943;28;20198;-69
2023/10/24 06:33:47;;;;;;;18.00;6.13;;;;;;;16.95;70.01;97263.00;5010486;28;20208;-76
2023/10/24 06:36:14;;;;;;;17.30;7.50;;;;;;;17.31;69.38;97256.19;5010579;28;20227;-78
2023/10/24 06:38:41;;;;;;;17.53;6.40;;;;;;;17.33;68.80;97236.78;5011155;28;20203;-69
2023/10/24 06:41:09;;;;;;;18.63;7.33;;;;;;;17.70;67.71;97251.63;5009670;28;20210;-67
2023/10/24 06:43:36;;;;;;;21.47;8.17;;;;;;;17.87;67.71;97219.84;5009567;28;20609;-66
2023/10/24 06:46:04;;;;;;;22.37;7.10;;;;;;;18.12;66.61;97237.25;5008412;28;20920;-70
2023/10/24 06:48:32;;;;;;;24.30;7.97;;;;;;;18.28;65.73;97244.84;5009715;28;20202;-71
2023/10/24 06:51:02;;;;;;;18.03;6.83;;;;;;;18.39;65.51;97252.75;5009345;28;20209;-69
2023/10/24 06:53:29;;;;;;;22.30;7.23;;;;;;;18.40;65.19;97241.34;5008127;28;20626;-70
2023/10/24 06:56:00;;;;;;;17.37;7.03;;;;;;;18.53;65.15;97240.34;5009506;28;20702;-68
2023/10/24 06:58:27;;;;;;;16.60;6.93;;;;;;;18.63;64.90;97243.09;5008049;28;20593;-69
2023/10/24 07:00:56;;;;;;;18.57;7.37;;;;;;;18.65;64.60;97241.19;5009650;28;20868;-73
2023/10/24 07:03:24;;;;;;;23.43;7.07;;;;;;;18.88;64.02;97244.72;5006636;28;20222;-74
2023/10/24 07:05:52;;;;;;;20.43;7.87;;;;;;;19.00;63.27;97243.81;5009132;28;20261;-68
2023/10/24 07:08:20;;;;;;;17.00;8.00;;;;;;;19.16;63.24;97241.69;5007319;28;20714;-70
2023/10/24 07:10:48;;;;;;;17.37;7.23;;;;;;;19.23;62.75;97251.59;5006602;28;20201;-74
2023/10/24 07:13:16;;;;;;;18.10;7.27;;;;;;;19.34;62.12;97242.91;5006901;28;20988;-69
2023/10/24 07:15:43;;;;;;;21.13;7.90;;;;;;;19.57;61.61;97246.38;5007407;28;20235;-73
2023/10/24 07:18:11;;;;;;;19.00;6.97;;;;;;;19.76;61.23;97229.06;5008931;28;20274;-68
2023/10/24 07:20:38;;;;;;;21.63;9.10;;;;;;;19.79;60.94;97234.06;5007426;28;20199;-74
2023/10/24 07:23:06;;;;;;;17.30;7.40;;;;;;;19.98;60.46;97238.69;5008573;28;20718;-70
2023/10/24 07:25:34;;;;;;;24.20;8.10;;;;;;;20.11;60.12;97220.97;5007568;28;20616;-74
2023/10/24 07:28:05;;;;;;;19.17;7.00;;;;;;;20.31;59.74;97236.00;5006194;28;20198;-75
2023/10/24 07:30:32;;;;;;;14.80;6.93;;;;;;;20.35;59.22;97231.31;5006195;28;20215;-72
2023/10/24 07:33:01;;;;;;;15.53;6.33;;;;;;;19.87;58.55;97123.03;4986346;28;20217;-70
2023/10/24 07:35:28;;;;;;;16.97;7.53;;;;;;;20.60;58.00;97229.19;4971674;28;20223;-75
2023/10/24 07:37:58;;;;;;;26.43;7.40;;;;;;;20.73;57.91;97221.91;4988083;28;20208;-72
2023/10/24 07:40:29;;;;;;;17.43;6.53;;;;;;;20.76;57.89;97215.56;4987706;28;20221;-73
2023/10/24 07:42:58;;;;;;;25.63;6.37;;;;;;;20.77;57.03;97212.78;4988251;28;20288;-68
2023/10/24 07:45:27;;;;;;;24.97;7.13;;;;;;;20.78;56.78;97216.28;5003517;28;20674;-74
2023/10/24 07:47:54;;;;;;;16.93;5.23;;;;;;;20.92;56.50;97210.69;5007402;28;20302;-75
2023/10/24 07:50:22;;;;;;;26.50;8.87;;;;;;;21.02;56.18;97201.91;5005580;28;20194;-77
2023/10/24 07:52:49;;;;;;;14.20;6.23;;;;;;;21.25;55.32;97204.38;5007610;28;20300;-76
2023/10/24 07:55:20;;;;;;;18.60;6.40;;;;;;;21.39;54.52;97196.94;5006648;28;20237;-70
2023/10/24 07:57:48;;;;;;;16.57;6.57;;;;;;;21.20;53.90;97157.38;5006108;28;20696;-67
2023/10/24 08:00:16;;;;;;;12.30;6.00;;;;;;;21.43;54.52;97173.81;5006756;28;20210;-72
2023/10/24 08:02:44;;;;;;;18.60;6.00;;;;;;;21.59;53.88;97185.53;5003105;28;20197;-66
2023/10/24 08:05:11;;;;;;;19.37;7.20;;;;;;;21.79;53.97;97189.03;4991635;28;20609;-74
2023/10/24 08:07:38;;;;;;;21.00;6.80;;;;;;;21.83;53.24;97179.91;5005063;28;20578;-72
2023/10/24 08:10:06;;;;;;;21.30;7.63;;;;;;;21.93;52.45;97179.97;4988225;28;20624;-67
2023/10/24 08:12:33;;;;;;;27.97;8.00;;;;;;;22.09;52.21;97174.97;4996411;28;20312;-67
2023/10/24 08:15:01;;;;;;;34.80;7.87;;;;;;;21.84;52.45;97150.75;5007268;28;20251;-70
2023/10/24 08:17:30;;;;;;;22.43;7.77;;;;;;;21.90;52.43;97162.59;5005888;28;20288;-71
2023/10/24 08:19:58;;;;;;;21.03;6.90;;;;;;;21.96;52.55;97174.38;5006329;28;20839;-67
2023/10/24 08:22:26;;;;;;;18.23;6.90;;;;;;;21.88;52.39;97155.78;5002431;28;20203;-70
2023/10/24 08:24:53;;;;;;;25.10;11.63;;;;;;;21.90;53.10;97178.41;4986768;28;20297;-72
2023/10/24 08:27:21;;;;;;;19.10;6.80;;;;;;;22.01;52.52;97159.00;4985865;28;20692;-71
2023/10/24 08:29:48;;;;;;;16.40;6.23;;;;;;;21.89;52.42;97155.63;4985853;28;20246;-75
2023/10/24 08:32:15;;;;;;;14.23;6.27;;;;;;;22.19;51.94;97167.91;4987207;28;20260;-70
2023/10/24 08:34:42;;;;;;;17.20;6.17;;;;;;;21.75;52.88;97153.38;4986584;28;20313;-73
2023/10/24 08:37:12;;;;;;;17.03;6.63;;;;;;;21.96;52.46;97148.84;4987364;28;20230;-68
2023/10/24 08:39:41;;;;;;;13.73;6.17;;;;;;;21.96;52.21;97159.41;4987049;28;20698;-69
2023/10/24 08:42:11;;;;;;;20.00;6.87;;;;;;;21.83;52.15;97119.28;4986717;28;20277;-68
2023/10/24 08:44:44;;;;;;;14.73;5.93;;;;;;;22.23;51.91;97154.28;4985920;28;20705;-70
2023/10/24 08:47:13;;;;;;;16.67;6.83;;;;;;;22.11;51.90;97144.84;4986260;28;20226;-70
2023/10/24 08:49:40;;;;;;;12.50;5.47;;;;;;;22.10;52.15;97150.25;4987712;28;20291;-69
2023/10/24 08:52:09;;;;;;;14.93;5.70;;;;;;;22.49;51.83;97171.22;4986573;28;20245;-69
2023/10/24 08:55:04;;;;;;;27.17;8.40;;;;;;;22.37;51.69;97161.78;4985449;28;20320;-68
2023/10/24 08:57:39;;;;;;;18.13;6.57;;;;;;;22.44;51.80;97167.34;4986802;28;20205;-70
2023/10/24 09:00:11;;;;;;;14.63;5.07;;;;;;;22.38;51.91;97167.91;4969058;28;20219;-67
2023/10/24 09:02:40;;;;;;;22.83;6.57;;;;;;;22.93;50.61;97168.94;4986933;28;20215;-71
2023/10/24 09:05:11;;;;;;;14.80;5.13;;;;;;;23.04;50.12;97166.16;4985902;28;20214;-69
2023/10/24 09:07:39;;;;;;;18.13;5.97;;;;;;;23.06;50.70;97158.91;4987530;28;20211;-72
2023/10/24 09:10:09;;;;;;;19.67;6.73;;;;;;;22.99;49.76;97112.91;4984894;28;20640;-70
2023/10/24 09:12:39;;;;;;;14.37;6.53;;;;;;;23.43;49.26;97152.66;4986426;28;20688;-73
2023/10/24 09:15:11;;;;;;;13.23;6.13;;;;;;;23.48;49.20;97154.88;4986345;28;20236;-70
2023/10/24 09:17:38;;;;;;;13.90;5.87;;;;;;;23.63;48.86;97153.41;4985674;28;20217;-68
2023/10/24 09:20:09;;;;;;;18.97;7.87;;;;;;;23.67;48.15;97117.75;4986745;28;20580;-70
2023/10/24 09:22:40;;;;;;;15.07;5.80;;;;;;;23.60;48.55;97136.97;4985942;28;20268;-73
2023/10/24 09:25:08;;;;;;;20.60;6.83;;;;;;;23.68;47.73;97086.84;4986739;28;20294;-73
2023/10/24 09:27:35;;;;;;;19.93;6.70;;;;;;;24.23;46.91;97136.03;4986186;28;20319;-69
2023/10/24 09:30:12;;;;;;;19.63;6.30;;;;;;;24.13;47.22;97130.00;4986674;28;20648;-70
2023/10/24 09:32:41;;;;;;;14.07;5.60;;;;;;;24.20;46.99;97134.50;4986744;28;20619;-69
2023/10/24 09:35:09;;;;;;;15.77;6.17;;;;;;;24.15;46.34;97112.94;4985902;28;20623;-68
2023/10/24 09:37:47;;;;;;;16.00;6.67;;;;;;;24.58;46.16;97130.69;4985982;28;20319;-68
2023/10/24 09:40:14;;;;;;;22.83;7.87;;;;;;;24.51;46.72;97118.22;4985942;28;20674;-69
2023/10/24 09:42:43;;;;;;;21.30;6.97;;;;;;;24.32;47.37;97115.75;4986679;28;20206;-69
2023/10/24 09:45:12;;;;;;;15.30;5.80;;;;;;;24.57;45.73;97105.19;4986351;28;20279;-73
2023/10/24 09:47:41;;;;;;;23.10;6.70;;;;;;;24.64;45.98;97097.47;4984671;28;20225;-69
2023/10/24 09:50:11;;;;;;;18.00;5.30;;;;;;;24.44;45.86;97065.03;4985363;28;20202;-69
2023/10/24 09:52:40;;;;;;;17.80;5.37;;;;;;;24.85;45.11;97095.31;4986050;28;20191;-68
2023/10/24 09:55:08;;;;;;;14.40;6.07;;;;;;;24.63;45.33;97069.28;4986974;28;20619;-73
2023/10/24 09:57:38;;;;;;;20.60;5.07;;;;;;;24.74;45.52;97074.38;4984635;28;20713;-74
2023/10/24 10:00:11;;;;;;;18.20;6.63;;;;;;;24.86;44.78;97073.94;4986217;28;20208;-69
2023/10/24 10:02:44;;;;;;;19.23;6.37;;;;;;;25.04;45.04;97072.06;4986357;28;20194;-69
2023/10/24 10:05:15;;;;;;;20.10;6.80;;;;;;;25.02;43.82;97062.59;4984355;28;20290;-71
2023/10/24 10:07:48;;;;;;;20.83;6.30;;;;;;;24.73;44.59;97031.16;4986516;28;20203;-71
2023/10/24 10:10:16;;;;;;;17.73;6.77;;;;;;;25.14;43.88;97074.59;4985237;28;20213;-70
2023/10/24 10:12:44;;;;;;;23.30;6.13;;;;;;;25.11;43.59;97069.59;4986540;28;20218;-71
2023/10/24 10:15:27;;;;;;;24.17;7.50;;;;;;;25.27;43.64;97061.72;4985644;28;20337;-69
2023/10/24 10:18:13;;;;;;;21.40;7.00;;;;;;;25.21;43.68;97049.09;4985991;28;20262;-69
2023/10/24 10:20:55;;;;;;;25.47;9.17;;;;;;;25.40;43.91;97058.59;4986214;28;20204;-69
2023/10/24 10:23:59;;;;;;;23.43;9.57;;;;;;;25.32;44.05;97062.06;4985360;28;20203;-70
2023/10/24 10:26:41;;;;;;;22.93;7.27;;;;;;;25.45;43.35;97057.16;4985814;28;20686;-70
2023/10/24 10:29:37;;;;;;;19.80;6.40;;;;;;;25.25;44.34;97046.94;4987949;28;20235;-69
2023/10/24 10:32:10;;;;;;;25.33;6.80;;;;;;;25.29;44.01;97035.88;4987653;28;20199;-68
2023/10/24 10:34:59;;;;;;;29.20;6.90;;;;;;;24.90;43.96;96981.72;4989285;28;20750;-69
2023/10/24 10:37:32;;;;;;;17.17;5.47;;;;;;;25.41;43.14;97031.94;4989222;28;20179;-79
2023/10/24 10:40:17;;;;;;;16.87;7.57;;;;;;;25.62;43.08;97040.28;4988782;28;20203;-69
2023/10/24 10:42:49;;;;;;;18.97;5.53;;;;;;;25.52;42.34;97023.69;4989433;28;20203;-71
2023/10/24 10:45:32;;;;;;;15.93;5.13;;;;;;;25.73;42.98;97040.00;4989000;28;20193;-69
2023/10/24 10:48:02;;;;;;;19.00;5.50;;;;;;;25.76;42.60;97037.00;4989313;28;20210;-73
2023/10/24 10:50:32;;;;;;;21.33;6.17;;;;;;;25.76;43.15;97031.69;4989222;28;20281;-76
2023/10/24 10:53:11;;;;;;;21.67;7.00;;;;;;;25.56;42.81;97021.53;4989059;28;20703;-72
2023/10/24 10:55:41;;;;;;;16.13;5.23;;;;;;;25.58;43.57;97023.03;4988391;28;20234;-69
2023/10/24 10:58:21;;;;;;;14.83;5.73;;;;;;;25.74;42.89;97019.56;4987514;28;20302;-72
2023/10/24 11:00:59;;;;;;;16.77;5.80;;;;;;;25.72;42.97;97014.44;4989352;28;20247;-69
2023/10/24 11:03:42;;;;;;;11.23;5.20;;;;;;;25.58;42.82;97025.69;4989003;28;20187;-69
2023/10/24 11:06:14;;;;;;;20.10;6.33;;;;;;;25.18;44.07;97020.28;4988453;28;20215;-69
2023/10/24 11:09:03;;;;;;;18.23;5.90;;;;;;;24.89;43.66;96959.69;4987981;28;20229;-69
2023/10/24 11:11:33;;;;;;;11.93;5.07;;;;;;;25.57;42.90;97010.78;4988073;28;20207;-69
2023/10/24 11:14:12;;;;;;;17.70;6.33;;;;;;;25.77;42.84;97009.47;4988420;28;20231;-71
2023/10/24 11:16:44;;;;;;;23.90;6.87;;;;;;;25.74;42.60;97009.78;4988573;28;20357;-68
2023/10/24 11:19:23;;;;;;;23.27;8.87;;;;;;;25.80;42.65;97013.63;4988040;28;20188;-71
2023/10/24 11:21:54;;;;;;;20.97;9.17;;;;;;;25.55;43.02;97018.09;4987629;28;20582;-68
2023/10/24 11:24:22;;;;;;;21.17;8.43;;;;;;;25.67;42.45;97010.63;4987939;28;20211;-69
2023/10/24 11:26:52;;;;;;;23.97;8.93;;;;;;;25.66;42.37;97007.13;4987389;28;20377;-69
2023/10/24 11:29:20;;;;;;;16.93;5.90;;;;;;;25.79;41.99;96993.38;4988310;28;20641;-74
2023/10/24 11:31:47;;;;;;;19.27;7.07;;;;;;;25.83;41.83;96986.75;4970313;28;20231;-70